Time;durP1;ratioP1;P1;durP2;ratioP2;P2;SDS_P1;SDS_P2;PMS_P1;PMS_P2;Temp;Humidity;BMP_temperature;BMP_pressure;BME280_temperature;BME280_humidity;BME280_pressure;Samples;Min_cycle;Max_cycle;Signal;HPM_P1;HPM_P2
2022/06/27 00:00:23;;;;;;;13.75;11.40;;;17.30;99.90;;;;;;5048330;28;20066;-76
2022/06/27 00:02:49;;;;;;;12.60;11.27;;;17.20;99.90;;;;;;5031065;28;20048;-77
2022/06/27 00:05:15;;;;;;;14.65;11.43;;;17.20;99.90;;;;;;5046778;28;20037;-75
2022/06/27 00:07:41;;;;;;;12.88;10.95;;;17.20;99.90;;;;;;5048789;28;20044;-76
2022/06/27 00:10:08;;;;;;;12.18;10.43;;;17.20;99.90;;;;;;5064133;28;20082;-76
2022/06/27 00:12:34;;;;;;;12.45;10.40;;;17.20;99.90;;;;;;5039292;28;20043;-76
2022/06/27 00:15:00;;;;;;;12.93;10.90;;;17.30;99.90;;;;;;5036851;28;20039;-76
2022/06/27 00:17:28;;;;;;;12.15;10.88;;;17.30;99.90;;;;;;5052496;28;20072;-76
2022/06/27 00:19:55;;;;;;;14.40;11.45;;;17.30;99.90;;;;;;5046648;28;20047;-76
2022/06/27 00:22:20;;;;;;;13.85;11.43;;;17.30;99.90;;;;;;5048422;28;20571;-76
2022/06/27 00:24:46;;;;;;;12.82;11.52;;;17.30;99.90;;;;;;5064789;28;20130;-77
2022/06/27 00:27:12;;;;;;;13.98;11.63;;;17.30;99.90;;;;;;5063660;28;20051;-78
2022/06/27 00:29:40;;;;;;;13.63;11.88;;;17.30;99.90;;;;;;5046109;28;20056;-74
2022/06/27 00:32:07;;;;;;;15.75;12.82;;;17.30;99.90;;;;;;5063095;28;20075;-72
2022/06/27 00:34:33;;;;;;;14.52;12.38;;;17.30;99.90;;;;;;5046419;28;20106;-73
2022/06/27 00:36:58;;;;;;;13.23;11.82;;;17.30;99.90;;;;;;5066881;28;20075;-72
2022/06/27 00:39:24;;;;;;;17.33;12.40;;;17.30;99.90;;;;;;5048039;28;20102;-73
2022/06/27 00:41:50;;;;;;;14.90;13.23;;;17.30;99.90;;;;;;5062653;28;20700;-73
2022/06/27 00:44:37;;;;;;;15.25;13.63;;;17.30;99.90;;;;;;5044154;28;20048;-72
2022/06/27 00:47:05;;;;;;;14.43;12.93;;;17.40;99.90;;;;;;5063285;28;20147;-73
2022/06/27 00:49:32;;;;;;;15.10;12.23;;;17.30;99.90;;;;;;5032921;28;20052;-73
2022/06/27 00:51:58;;;;;;;15.95;13.13;;;17.40;99.90;;;;;;5064816;28;20036;-73
2022/06/27 00:54:25;;;;;;;17.33;13.65;;;17.30;99.90;;;;;;5063063;28;20056;-72
2022/06/27 00:56:51;;;;;;;16.60;13.57;;;17.30;99.90;;;;;;5046148;28;20079;-73
2022/06/27 00:59:18;;;;;;;15.40;13.02;;;17.30;99.90;;;;;;5065084;28;20955;-72
2022/06/27 01:01:44;;;;;;;15.35;13.50;;;17.30;99.90;;;;;;5048998;28;20041;-73
2022/06/27 01:04:10;;;;;;;15.65;13.32;;;17.30;99.90;;;;;;5045780;28;20060;-73
2022/06/27 01:06:35;;;;;;;16.73;13.15;;;17.20;99.90;;;;;;5028642;28;20044;-73
2022/06/27 01:09:02;;;;;;;16.75;14.55;;;17.20;99.90;;;;;;5045407;28;20041;-72
2022/06/27 01:11:28;;;;;;;19.17;15.10;;;17.20;99.90;;;;;;5036150;28;20045;-73
2022/06/27 01:13:54;;;;;;;17.77;14.02;;;17.20;99.90;;;;;;5036011;28;20047;-72
2022/06/27 01:16:20;;;;;;;15.80;14.13;;;17.10;99.90;;;;;;5062588;28;20048;-72
2022/06/27 01:18:46;;;;;;;15.23;13.30;;;17.10;99.90;;;;;;5064438;28;20052;-73
2022/06/27 01:21:25;;;;;;;17.73;14.07;;;17.10;99.90;;;;;;5036499;28;20056;-73
2022/06/27 01:23:52;;;;;;;16.88;14.18;;;17.10;99.90;;;;;;5019797;28;20045;-73
2022/06/27 01:26:20;;;;;;;15.90;13.88;;;17.20;99.90;;;;;;5049269;28;20040;-72
2022/06/27 01:28:46;;;;;;;17.98;14.43;;;17.20;99.90;;;;;;5050743;28;20103;-73
2022/06/27 01:31:15;;;;;;;16.83;14.43;;;17.10;99.90;;;;;;5039734;28;20060;-73
2022/06/27 01:33:42;;;;;;;20.42;14.70;;;17.20;99.90;;;;;;5053401;28;20048;-73
2022/06/27 01:38:53;;;;;;;14.60;13.07;;;17.20;99.90;;;;;;5068815;28;20044;-72
2022/06/27 01:41:19;;;;;;;16.83;14.52;;;17.20;99.90;;;;;;5037497;28;20164;-73
2022/06/27 01:43:46;;;;;;;18.13;14.93;;;17.20;99.90;;;;;;5044298;28;20059;-73
2022/06/27 01:46:12;;;;;;;18.02;14.30;;;17.20;99.90;;;;;;5050982;28;20435;-73
2022/06/27 01:48:39;;;;;;;17.05;14.57;;;17.20;99.90;;;;;;5047607;28;20056;-73
2022/06/27 01:51:08;;;;;;;17.90;14.02;;;17.20;99.90;;;;;;5051823;28;20065;-74
2022/06/27 01:53:34;;;;;;;15.98;14.18;;;17.20;99.90;;;;;;5048974;28;20135;-76
2022/06/27 01:56:00;;;;;;;20.05;14.52;;;17.20;99.90;;;;;;5048356;28;20112;-75
2022/06/27 01:58:26;;;;;;;18.83;14.52;;;17.20;99.90;;;;;;5067108;28;20059;-76
2022/06/27 02:00:52;;;;;;;17.98;14.73;;;17.20;99.90;;;;;;5038180;28;20040;-75
2022/06/27 02:03:18;;;;;;;15.43;13.65;;;17.20;99.90;;;;;;5036414;28;20139;-75
2022/06/27 02:05:45;;;;;;;15.95;13.35;;;17.20;99.90;;;;;;5051555;28;20045;-75
2022/06/27 02:08:11;;;;;;;15.82;13.40;;;17.20;99.90;;;;;;5066431;28;20052;-76
2022/06/27 02:10:37;;;;;;;16.42;13.85;;;17.20;99.90;;;;;;5050567;28;20047;-75
2022/06/27 02:13:03;;;;;;;18.13;14.32;;;17.20;99.90;;;;;;5045790;28;20049;-76
2022/06/27 02:15:30;;;;;;;18.02;14.80;;;17.20;99.90;;;;;;5048345;28;20067;-76
2022/06/27 02:17:56;;;;;;;23.05;15.48;;;17.20;99.90;;;;;;5065273;28;20051;-76
2022/06/27 02:20:23;;;;;;;19.98;15.73;;;17.30;99.90;;;;;;5041354;28;20044;-75
2022/06/27 02:22:49;;;;;;;18.48;15.05;;;17.20;99.90;;;;;;5047229;28;20076;-75
2022/06/27 02:25:15;;;;;;;19.15;14.23;;;17.20;99.90;;;;;;5047612;28;20043;-75
2022/06/27 02:27:43;;;;;;;16.75;14.52;;;17.30;99.90;;;;;;5067550;28;20139;-76
2022/06/27 02:30:10;;;;;;;18.58;15.07;;;17.30;99.90;;;;;;5051534;28;20144;-76
2022/06/27 02:32:36;;;;;;;16.88;14.80;;;17.30;99.90;;;;;;5050464;28;20056;-75
2022/06/27 02:35:02;;;;;;;19.13;15.30;;;17.30;99.90;;;;;;5049694;28;20048;-76
2022/06/27 02:37:29;;;;;;;21.42;16.17;;;17.30;99.90;;;;;;5051591;28;20114;-75
2022/06/27 02:39:56;;;;;;;19.15;15.32;;;17.30;99.90;;;;;;5048368;28;20122;-75
2022/06/27 02:42:23;;;;;;;21.05;16.20;;;17.30;99.90;;;;;;5042141;28;20154;-76
2022/06/27 02:44:49;;;;;;;20.95;16.27;;;17.30;99.90;;;;;;5037976;28;20049;-76
2022/06/27 02:47:22;;;;;;;19.90;15.90;;;17.20;99.90;;;;;;5040544;28;21310;-76
2022/06/27 02:49:49;;;;;;;24.17;16.90;;;17.30;99.90;;;;;;5047375;28;20108;-76
2022/06/27 02:52:32;;;;;;;20.85;16.95;;;17.30;99.90;;;;;;5040279;28;20144;-75
2022/06/27 02:55:11;;;;;;;19.25;15.75;;;17.20;99.90;;;;;;5048151;28;20607;-76
2022/06/27 02:57:52;;;;;;;21.45;15.85;;;17.20;99.90;;;;;;5066140;28;20053;-75
2022/06/27 03:00:18;;;;;;;21.15;15.77;;;17.20;99.90;;;;;;5053773;28;20049;-76
2022/06/27 03:02:45;;;;;;;17.10;14.70;;;17.20;99.90;;;;;;5066130;28;20060;-75
2022/06/27 03:05:11;;;;;;;17.23;15.18;;;17.20;99.90;;;;;;5066049;28;20526;-74
2022/06/27 03:07:42;;;;;;;19.35;15.25;;;17.20;99.90;;;;;;5049764;28;20995;-76
2022/06/27 03:10:11;;;;;;;20.85;15.50;;;17.20;99.90;;;;;;5066500;28;20138;-76
2022/06/27 03:12:37;;;;;;;17.10;14.88;;;17.20;99.90;;;;;;5032754;28;20095;-76
2022/06/27 03:15:03;;;;;;;15.77;12.80;;;17.20;99.90;;;;;;5045991;28;20040;-75
2022/06/27 03:17:29;;;;;;;20.55;14.57;;;17.20;99.90;;;;;;5065077;28;20033;-75
2022/06/27 03:19:56;;;;;;;19.33;14.98;;;17.10;99.90;;;;;;5048872;28;20048;-75
2022/06/27 03:22:22;;;;;;;15.85;13.52;;;17.10;99.90;;;;;;5038104;28;20079;-75
2022/06/27 03:24:48;;;;;;;17.65;13.70;;;17.10;99.90;;;;;;5050013;28;20044;-76
2022/06/27 03:27:13;;;;;;;19.73;14.48;;;17.10;99.90;;;;;;5032402;28;20055;-75
2022/06/27 03:29:39;;;;;;;19.67;15.38;;;17.10;99.90;;;;;;5083449;28;20081;-76
2022/06/27 03:32:05;;;;;;;18.25;14.55;;;17.10;99.90;;;;;;5063500;28;20059;-75
2022/06/27 03:34:32;;;;;;;21.10;16.08;;;17.10;99.90;;;;;;5016243;28;20041;-75
2022/06/27 03:36:57;;;;;;;17.13;14.02;;;17.10;99.90;;;;;;5066282;28;20041;-75
2022/06/27 03:39:23;;;;;;;19.13;15.55;;;17.10;99.90;;;;;;5048412;28;20036;-75
2022/06/27 03:41:49;;;;;;;20.02;15.32;;;17.10;99.90;;;;;;5037408;28;20072;-76
2022/06/27 03:44:15;;;;;;;17.13;13.45;;;17.10;99.90;;;;;;5030931;28;20052;-75
2022/06/27 03:46:41;;;;;;;13.70;11.75;;;17.10;99.90;;;;;;5049614;28;20498;-75
2022/06/27 03:51:53;;;;;;;11.27;9.70;;;17.00;99.90;;;;;;5066908;28;20091;-76
2022/06/27 03:54:18;;;;;;;10.23;8.95;;;16.90;99.90;;;;;;5051452;28;20062;-75
2022/06/27 03:56:44;;;;;;;10.02;9.00;;;16.80;99.90;;;;;;5037889;28;20037;-76
2022/06/27 03:59:10;;;;;;;11.13;9.10;;;16.80;99.90;;;;;;5049048;28;20037;-75
2022/06/27 04:01:36;;;;;;;10.55;8.57;;;16.80;99.90;;;;;;5062520;28;20139;-76
2022/06/27 04:04:02;;;;;;;8.02;7.18;;;16.70;99.90;;;;;;5064784;28;20220;-76
2022/06/27 04:06:28;;;;;;;8.90;6.78;;;16.70;99.90;;;;;;5039603;28;20079;-76
2022/06/27 04:08:54;;;;;;;7.07;5.80;;;16.60;99.90;;;;;;5015137;28;20041;-76
2022/06/27 04:11:19;;;;;;;5.97;5.38;;;16.60;99.90;;;;;;5064599;28;20609;-76
2022/06/27 04:13:45;;;;;;;6.68;5.10;;;16.60;99.90;;;;;;5038150;28;20084;-75
2022/06/27 04:16:11;;;;;;;5.72;4.70;;;16.50;99.90;;;;;;5032386;28;20428;-76
2022/06/27 04:18:36;;;;;;;5.35;4.85;;;16.40;99.90;;;;;;5063531;28;20052;-74
2022/06/27 04:21:02;;;;;;;9.07;5.72;;;16.40;99.90;;;;;;5044283;28;20056;-78
2022/06/27 04:23:28;;;;;;;6.60;4.78;;;16.40;99.90;;;;;;5037823;28;20047;-78
2022/06/27 04:25:54;;;;;;;5.95;5.45;;;16.30;99.90;;;;;;5042289;28;20112;-77
2022/06/27 04:28:20;;;;;;;5.80;4.60;;;16.30;99.90;;;;;;5038282;28;20048;-77
2022/06/27 04:30:47;;;;;;;6.75;4.70;;;16.30;99.90;;;;;;5046160;28;20138;-77
2022/06/27 04:33:13;;;;;;;11.13;5.40;;;16.30;99.90;;;;;;5039172;28;20039;-77
2022/06/27 04:35:40;;;;;;;6.28;4.60;;;16.30;99.90;;;;;;5013341;28;20056;-77
2022/06/27 04:38:06;;;;;;;5.43;4.63;;;16.30;99.90;;;;;;5046535;28;20063;-77
2022/06/27 04:40:32;;;;;;;5.32;4.60;;;16.20;99.90;;;;;;5063386;28;20040;-77
2022/06/27 04:42:59;;;;;;;4.82;4.32;;;16.20;99.90;;;;;;5063032;28;20056;-77
2022/06/27 04:45:28;;;;;;;7.10;4.85;;;16.20;99.90;;;;;;5063942;28;20048;-78
2022/06/27 04:47:54;;;;;;;6.05;4.40;;;16.20;99.90;;;;;;5046649;28;20048;-79
2022/06/27 04:50:22;;;;;;;5.60;4.20;;;16.20;99.90;;;;;;5022703;28;20048;-74
2022/06/27 04:52:49;;;;;;;6.25;4.40;;;16.20;99.90;;;;;;5034458;28;20456;-75
2022/06/27 04:55:16;;;;;;;5.13;4.60;;;16.20;99.90;;;;;;5036208;28;20373;-73
2022/06/27 04:57:43;;;;;;;4.43;4.03;;;16.20;99.90;;;;;;5036982;28;20041;-74
2022/06/27 05:00:12;;;;;;;4.50;4.10;;;16.20;99.90;;;;;;5042721;28;20049;-76
2022/06/27 05:02:38;;;;;;;4.40;3.92;;;16.20;99.90;;;;;;5046643;28;20342;-76
2022/06/27 05:05:05;;;;;;;4.40;4.00;;;16.20;99.90;;;;;;5036994;28;20040;-79
2022/06/27 05:07:31;;;;;;;6.40;3.90;;;16.20;99.90;;;;;;5031155;28;20083;-76
2022/06/27 05:09:57;;;;;;;4.82;4.18;;;16.10;99.90;;;;;;5061758;28;20048;-76
2022/06/27 05:12:24;;;;;;;5.38;4.88;;;16.10;99.90;;;;;;5008011;28;20041;-78
2022/06/27 05:14:51;;;;;;;7.72;5.05;;;16.10;99.90;;;;;;5069375;28;20048;-77
2022/06/27 05:17:16;;;;;;;5.55;5.00;;;16.10;99.90;;;;;;5038691;28;20048;-77
2022/06/27 05:19:42;;;;;;;5.22;4.72;;;16.10;99.90;;;;;;5009233;28;20076;-77
2022/06/27 05:22:08;;;;;;;5.28;4.60;;;16.20;99.90;;;;;;5044858;28;20545;-78
2022/06/27 05:24:35;;;;;;;5.22;4.43;;;16.20;99.90;;;;;;5056295;28;20064;-77
2022/06/27 05:27:00;;;;;;;4.72;4.30;;;16.30;99.90;;;;;;5059776;28;20052;-78
2022/06/27 05:29:26;;;;;;;4.47;4.07;;;16.30;99.90;;;;;;5034517;28;20052;-77
2022/06/27 05:31:52;;;;;;;4.63;4.20;;;16.30;99.90;;;;;;5030876;28;20574;-77
2022/06/27 05:34:18;;;;;;;4.40;4.00;;;16.30;99.90;;;;;;5049697;28;20033;-77
2022/06/27 05:36:44;;;;;;;4.35;3.75;;;16.30;99.90;;;;;;5043161;28;20041;-75
2022/06/27 05:39:10;;;;;;;3.80;3.50;;;16.30;99.90;;;;;;5045736;28;20289;-75
2022/06/27 05:41:36;;;;;;;5.13;3.85;;;16.40;99.90;;;;;;5045673;28;20082;-73
2022/06/27 05:44:02;;;;;;;4.72;4.32;;;16.40;99.90;;;;;;5062075;28;20123;-74
2022/06/27 05:46:28;;;;;;;5.15;4.22;;;16.40;99.90;;;;;;5037231;28;20514;-72
2022/06/27 05:48:55;;;;;;;5.88;4.75;;;16.40;99.90;;;;;;5072112;28;20063;-74
2022/06/27 05:51:22;;;;;;;5.03;4.47;;;16.40;99.90;;;;;;5072333;28;20048;-74
2022/06/27 05:53:49;;;;;;;5.40;4.90;;;16.40;99.90;;;;;;5073249;28;20049;-74
2022/06/27 05:56:15;;;;;;;5.20;4.70;;;16.40;99.90;;;;;;5056109;28;20068;-74
2022/06/27 05:58:42;;;;;;;4.78;3.88;;;16.40;99.90;;;;;;5036507;28;20045;-74
2022/06/27 06:01:09;;;;;;;5.80;4.30;;;16.50;99.90;;;;;;5068346;28;20048;-73
2022/06/27 06:03:36;;;;;;;3.90;3.60;;;16.50;99.90;;;;;;5064538;28;20044;-73
2022/06/27 06:06:03;;;;;;;4.60;4.20;;;16.50;99.90;;;;;;5069197;28;20388;-74
2022/06/27 06:08:29;;;;;;;5.03;4.07;;;16.60;99.90;;;;;;5054618;28;20044;-74
2022/06/27 06:10:55;;;;;;;5.30;4.78;;;16.60;99.90;;;;;;5072887;28;20045;-73
2022/06/27 06:13:22;;;;;;;5.50;4.93;;;16.70;99.90;;;;;;5058333;28;20057;-74
2022/06/27 06:15:48;;;;;;;5.60;4.90;;;16.70;99.90;;;;;;5043544;28;20068;-74
2022/06/27 06:18:14;;;;;;;5.32;4.82;;;16.70;99.90;;;;;;5021700;28;20083;-73
2022/06/27 06:20:40;;;;;;;5.25;4.40;;;16.70;99.90;;;;;;5035330;28;20670;-74
2022/06/27 06:23:06;;;;;;;6.53;4.50;;;16.80;99.90;;;;;;5056581;28;20060;-74
2022/06/27 06:25:32;;;;;;;5.40;4.35;;;16.80;99.90;;;;;;5038486;28;20110;-74
2022/06/27 06:28:01;;;;;;;5.40;4.45;;;16.80;99.90;;;;;;5054505;28;20060;-74
2022/06/27 06:30:29;;;;;;;5.35;4.85;;;16.80;99.90;;;;;;5075535;28;20068;-74
2022/06/27 06:32:56;;;;;;;7.18;4.78;;;16.80;99.90;;;;;;5058744;28;20036;-74
2022/06/27 06:35:23;;;;;;;4.72;4.32;;;16.80;99.90;;;;;;5040760;28;20037;-74
2022/06/27 06:37:51;;;;;;;5.38;4.63;;;16.80;99.90;;;;;;5056837;28;20045;-74
2022/06/27 06:40:16;;;;;;;7.68;4.57;;;16.80;99.90;;;;;;5022553;28;20559;-74
2022/06/27 06:42:43;;;;;;;4.78;4.38;;;16.80;99.90;;;;;;5037328;28;20060;-74
2022/06/27 06:45:10;;;;;;;4.80;4.40;;;16.80;99.90;;;;;;5059176;28;20052;-74
2022/06/27 06:47:46;;;;;;;4.70;4.30;;;16.80;99.90;;;;;;5038526;28;20048;-73
2022/06/27 06:50:16;;;;;;;4.95;4.45;;;16.90;99.90;;;;;;5054841;28;20064;-74
2022/06/27 06:52:42;;;;;;;4.70;4.20;;;16.90;99.90;;;;;;5058753;28;20044;-74
2022/06/27 06:55:09;;;;;;;5.13;3.92;;;16.90;99.90;;;;;;5072590;28;20053;-74
2022/06/27 06:57:38;;;;;;;6.38;4.38;;;16.90;99.90;;;;;;5066101;28;20076;-74
2022/06/27 07:00:05;;;;;;;5.10;4.60;;;16.90;99.90;;;;;;5065671;28;20074;-73
2022/06/27 07:02:31;;;;;;;5.07;4.57;;;16.90;99.90;;;;;;5058344;28;20404;-75
2022/06/27 07:04:58;;;;;;;4.68;4.15;;;17.00;99.90;;;;;;5039732;28;20059;-75
2022/06/27 07:07:25;;;;;;;5.22;4.75;;;17.00;99.90;;;;;;5042745;28;20044;-74
2022/06/27 07:09:52;;;;;;;5.05;4.55;;;17.00;99.90;;;;;;5058291;28;20052;-74
2022/06/27 07:12:18;;;;;;;5.82;4.75;;;17.10;99.90;;;;;;5075980;28;20052;-74
2022/06/27 07:14:45;;;;;;;5.10;4.53;;;17.00;99.90;;;;;;5041392;28;20054;-75
2022/06/27 07:17:11;;;;;;;5.22;4.72;;;17.10;99.90;;;;;;5058046;28;20057;-74
2022/06/27 07:19:38;;;;;;;5.18;4.18;;;17.00;99.90;;;;;;5058470;28;20393;-74
2022/06/27 07:22:06;;;;;;;5.55;4.70;;;17.00;99.90;;;;;;5054373;28;20063;-74
2022/06/27 07:24:32;;;;;;;5.53;4.88;;;17.00;99.90;;;;;;5028047;28;20100;-74
2022/06/27 07:26:59;;;;;;;4.95;4.45;;;17.00;99.90;;;;;;5059145;28;20044;-74
2022/06/27 07:29:26;;;;;;;4.55;4.15;;;17.00;99.90;;;;;;5054581;28;20068;-74
2022/06/27 07:31:53;;;;;;;5.63;4.70;;;17.00;99.90;;;;;;5034891;28;20423;-75
2022/06/27 07:34:21;;;;;;;5.78;4.80;;;17.00;99.90;;;;;;5041701;28;20473;-74
2022/06/27 07:36:48;;;;;;;5.70;4.53;;;17.00;99.90;;;;;;5075008;28;20052;-75
2022/06/27 07:39:14;;;;;;;5.30;4.53;;;17.00;99.90;;;;;;5073512;28;20135;-75
2022/06/27 07:41:40;;;;;;;5.00;4.20;;;17.00;99.90;;;;;;5050823;28;20204;-74
2022/06/27 07:44:06;;;;;;;5.68;5.13;;;17.00;99.90;;;;;;5055883;28;20045;-74
2022/06/27 07:46:34;;;;;;;5.22;4.72;;;17.00;99.90;;;;;;5051336;28;20049;-75
2022/06/27 07:49:00;;;;;;;5.15;4.53;;;17.10;99.90;;;;;;5057789;28;20037;-74
2022/06/27 07:51:27;;;;;;;5.57;5.00;;;17.10;99.90;;;;;;5074816;28;20083;-74
2022/06/27 07:53:53;;;;;;;6.00;5.07;;;17.10;99.90;;;;;;5073531;28;20070;-74
2022/06/27 07:56:22;;;;;;;6.60;5.22;;;17.10;99.90;;;;;;5037136;28;20313;-74
2022/06/27 07:58:48;;;;;;;6.97;4.75;;;17.20;99.90;;;;;;5076318;28;20059;-74
2022/06/27 08:01:15;;;;;;;5.72;4.50;;;17.00;99.90;;;;;;5040348;28;20041;-74
2022/06/27 08:03:44;;;;;;;5.57;4.72;;;17.00;99.90;;;;;;5056100;28;20080;-74
2022/06/27 08:06:39;;;;;;;6.80;5.00;;;17.00;99.90;;;;;;5050608;28;20068;-74
2022/06/27 08:09:07;;;;;;;6.05;4.85;;;17.00;99.90;;;;;;5035613;28;20087;-74
2022/06/27 08:11:38;;;;;;;7.05;5.32;;;17.10;99.90;;;;;;5074031;28;20134;-74
2022/06/27 08:14:07;;;;;;;6.25;5.50;;;17.10;99.90;;;;;;5072325;28;20073;-74
2022/06/27 08:16:35;;;;;;;6.57;5.32;;;17.10;99.90;;;;;;5068727;28;20096;-74
2022/06/27 08:19:01;;;;;;;7.00;5.40;;;17.10;99.90;;;;;;5073366;28;20104;-75
2022/06/27 08:21:28;;;;;;;5.95;5.35;;;17.00;99.90;;;;;;5037394;28;20049;-74
2022/06/27 08:24:03;;;;;;;6.47;5.75;;;17.10;99.90;;;;;;5070972;28;20044;-75
2022/06/27 08:26:30;;;;;;;5.63;5.13;;;17.00;99.90;;;;;;5056738;28;20131;-74
2022/06/27 08:28:58;;;;;;;6.63;5.93;;;17.10;99.90;;;;;;5056167;28;20109;-74
2022/06/27 08:31:26;;;;;;;6.75;5.95;;;17.10;99.90;;;;;;5056425;28;20044;-74
2022/06/27 08:33:58;;;;;;;7.55;6.30;;;17.20;99.90;;;;;;5037076;28;20041;-75
2022/06/27 08:36:30;;;;;;;7.53;6.15;;;17.20;99.90;;;;;;5070331;28;20044;-74
2022/06/27 08:38:57;;;;;;;8.68;6.18;;;17.20;99.90;;;;;;5074800;28;20056;-75
2022/06/27 08:41:23;;;;;;;7.43;6.32;;;17.20;99.90;;;;;;5057077;28;20044;-73
2022/06/27 08:43:54;;;;;;;8.15;6.93;;;17.30;99.90;;;;;;5055388;28;20044;-74
2022/06/27 08:46:20;;;;;;;7.28;6.35;;;17.40;99.90;;;;;;5073765;28;20060;-74
2022/06/27 08:48:47;;;;;;;8.32;6.45;;;17.40;99.90;;;;;;5055874;28;20178;-74
2022/06/27 08:51:13;;;;;;;8.02;7.03;;;17.40;99.90;;;;;;5073198;28;20100;-74
2022/06/27 08:53:41;;;;;;;7.82;7.05;;;17.40;99.90;;;;;;5036255;28;20066;-75
2022/06/27 08:56:12;;;;;;;7.93;6.38;;;17.40;99.90;;;;;;5029127;28;20111;-75
2022/06/27 08:58:40;;;;;;;6.82;6.18;;;17.40;99.90;;;;;;5056991;28;20044;-74
2022/06/27 09:01:06;;;;;;;7.50;6.80;;;17.40;99.90;;;;;;5050380;28;20029;-74
2022/06/27 09:03:33;;;;;;;7.15;6.55;;;17.40;99.90;;;;;;5056471;28;20101;-74
2022/06/27 09:06:04;;;;;;;8.98;6.65;;;17.40;99.90;;;;;;5036439;28;20037;-74
2022/06/27 09:09:06;;;;;;;7.43;6.68;;;17.40;99.90;;;;;;5040199;28;20051;-74
2022/06/27 09:11:35;;;;;;;6.93;6.22;;;17.40;99.90;;;;;;5049045;28;20496;-74
2022/06/27 09:14:01;;;;;;;9.30;7.68;;;17.50;99.90;;;;;;5055673;28;20060;-74
2022/06/27 09:16:27;;;;;;;8.30;7.22;;;17.50;99.90;;;;;;5068694;28;20442;-74
2022/06/27 09:18:53;;;;;;;7.90;7.10;;;17.50;99.90;;;;;;5041627;28;20041;-74
2022/06/27 09:21:20;;;;;;;8.23;6.82;;;17.50;99.90;;;;;;5070789;28;20048;-74
2022/06/27 09:24:01;;;;;;;7.13;6.43;;;17.50;99.90;;;;;;5056278;28;20608;-75
2022/06/27 09:26:27;;;;;;;7.55;6.60;;;17.60;99.90;;;;;;5066748;28;20091;-74
2022/06/27 09:28:53;;;;;;;7.60;6.78;;;17.60;99.90;;;;;;5073486;28;20048;-75
2022/06/27 09:31:28;;;;;;;7.53;6.75;;;17.60;99.90;;;;;;5054713;28;20099;-75
2022/06/27 09:34:08;;;;;;;7.65;6.75;;;17.60;99.90;;;;;;5072218;28;20049;-74
2022/06/27 09:36:35;;;;;;;7.03;6.40;;;17.60;99.90;;;;;;5047385;28;20525;-74
2022/06/27 09:39:03;;;;;;;7.15;6.45;;;17.60;99.90;;;;;;5044752;28;20058;-74
2022/06/27 09:41:33;;;;;;;7.00;6.35;;;17.60;99.90;;;;;;5073561;28;20415;-74
2022/06/27 09:44:10;;;;;;;7.45;6.65;;;17.60;99.90;;;;;;5072394;28;20056;-74
2022/06/27 09:46:42;;;;;;;6.30;5.70;;;17.60;99.90;;;;;;5051998;28;20419;-74
2022/06/27 09:49:12;;;;;;;6.97;6.03;;;17.60;99.90;;;;;;5076476;28;20052;-75
2022/06/27 09:51:39;;;;;;;6.90;6.20;;;17.60;99.90;;;;;;5059422;28;20044;-74
2022/06/27 09:54:11;;;;;;;6.18;5.57;;;17.70;99.90;;;;;;5076936;28;20040;-73
2022/06/27 09:56:42;;;;;;;6.78;6.18;;;17.70;99.90;;;;;;5059202;28;20079;-74
2022/06/27 09:59:12;;;;;;;9.18;6.70;;;17.70;99.90;;;;;;5076936;28;20518;-74
2022/06/27 10:01:42;;;;;;;7.10;6.03;;;17.80;99.90;;;;;;5042042;28;20056;-73
2022/06/27 10:04:09;;;;;;;6.65;6.05;;;17.70;99.90;;;;;;5059401;28;20175;-74
2022/06/27 10:06:41;;;;;;;6.90;6.25;;;17.70;99.90;;;;;;5058749;28;20039;-74
2022/06/27 10:09:09;;;;;;;7.68;6.07;;;17.80;99.90;;;;;;5060704;28;20051;-75
2022/06/27 10:11:36;;;;;;;7.78;6.78;;;17.80;99.90;;;;;;5058729;28;20051;-74
2022/06/27 10:14:23;;;;;;;7.60;6.30;;;17.90;99.90;;;;;;5075253;28;20048;-75
2022/06/27 10:16:54;;;;;;;7.50;6.80;;;18.00;99.90;;;;;;5075614;28;20115;-75
2022/06/27 10:19:21;;;;;;;6.75;6.05;;;18.00;99.90;;;;;;5058801;28;20087;-74
2022/06/27 10:21:49;;;;;;;6.88;6.28;;;18.10;99.90;;;;;;5057333;28;20564;-73
2022/06/27 10:24:31;;;;;;;7.35;6.65;;;18.20;99.90;;;;;;5076436;28;20439;-73
2022/06/27 10:27:03;;;;;;;7.68;6.88;;;18.20;99.90;;;;;;5074626;28;20037;-74
2022/06/27 10:29:45;;;;;;;7.30;6.60;;;18.20;99.90;;;;;;5059527;28;20080;-74
2022/06/27 10:32:35;;;;;;;6.93;6.22;;;18.20;99.90;;;;;;5058825;28;20051;-74
2022/06/27 10:35:04;;;;;;;7.13;6.43;;;18.20;99.90;;;;;;5056317;28;20469;-74
2022/06/27 10:37:34;;;;;;;7.65;6.50;;;18.20;99.90;;;;;;5075267;28;20106;-74
2022/06/27 10:40:18;;;;;;;7.38;6.68;;;18.20;99.90;;;;;;5058553;28;20052;-74
2022/06/27 10:42:47;;;;;;;8.02;6.80;;;18.30;99.90;;;;;;5072264;28;20045;-74
2022/06/27 10:45:19;;;;;;;7.85;6.80;;;18.30;99.90;;;;;;5042196;28;20063;-75
2022/06/27 10:47:46;;;;;;;7.03;6.32;;;18.30;99.90;;;;;;5074258;28;20029;-74
2022/06/27 10:50:13;;;;;;;7.90;7.10;;;18.30;99.90;;;;;;5042888;28;20033;-75
2022/06/27 10:52:38;;;;;;;7.78;6.95;;;18.40;99.90;;;;;;5042290;28;20775;-74
2022/06/27 10:55:40;;;;;;;7.07;6.13;;;18.40;99.90;;;;;;5079099;28;20040;-74
2022/06/27 10:58:27;;;;;;;6.82;6.07;;;18.50;99.90;;;;;;5021265;28;20049;-73
2022/06/27 11:01:12;;;;;;;6.05;5.45;;;18.60;99.90;;;;;;5062743;28;20165;-74
2022/06/27 11:03:39;;;;;;;5.95;5.45;;;18.60;99.90;;;;;;5058072;28;20041;-74
2022/06/27 11:06:06;;;;;;;6.95;5.22;;;18.60;99.90;;;;;;5074360;28;20048;-75
2022/06/27 11:08:37;;;;;;;6.32;5.72;;;18.60;99.90;;;;;;5066896;28;20593;-75
2022/06/27 11:11:05;;;;;;;5.77;5.13;;;18.60;99.90;;;;;;5058440;28;20603;-75
2022/06/27 11:13:47;;;;;;;5.88;5.32;;;18.70;99.90;;;;;;5057608;28;20798;-75
2022/06/27 11:16:19;;;;;;;5.45;4.82;;;18.70;99.90;;;;;;5058949;28;20040;-75
2022/06/27 11:20:04;;;;;;;;;;;18.80;99.90;;;;;;5056414;28;20262;-75
2022/06/27 11:21:51;;;;;;;4.25;3.63;;;18.80;99.90;;;;;;5072087;28;20333;-75
2022/06/27 11:24:17;;;;;;;5.47;4.07;;;18.90;99.90;;;;;;5059024;28;20072;-74
2022/06/27 11:26:48;;;;;;;5.97;4.80;;;18.90;99.90;;;;;;5074316;28;20056;-74
2022/06/27 11:32:10;;;;;;;4.90;4.15;;;18.90;99.90;;;;;;5062473;28;20052;-75
2022/06/27 11:34:47;;;;;;;5.18;4.57;;;18.90;99.90;;;;;;5074253;28;20079;-75
2022/06/27 11:37:16;;;;;;;5.15;4.28;;;18.90;99.90;;;;;;5056993;28;20045;-74
2022/06/27 11:40:00;;;;;;;5.53;4.07;;;18.90;99.90;;;;;;5073298;28;20508;-74
2022/06/27 11:42:30;;;;;;;5.97;4.22;;;18.90;99.90;;;;;;5050417;28;20056;-75
2022/06/27 11:45:13;;;;;;;4.65;3.90;;;19.00;99.90;;;;;;5052565;28;20087;-76
2022/06/27 11:47:45;;;;;;;4.07;3.67;;;19.10;99.90;;;;;;5065876;28;20319;-74
2022/06/27 11:50:12;;;;;;;4.07;3.78;;;19.00;99.90;;;;;;5075088;28;20053;-74
2022/06/27 11:52:42;;;;;;;4.97;4.45;;;18.90;99.90;;;;;;5056431;28;20044;-75
2022/06/27 11:55:15;;;;;;;4.53;3.97;;;18.90;99.90;;;;;;5057585;28;20124;-75
2022/06/27 11:57:48;;;;;;;4.90;4.22;;;18.90;99.90;;;;;;5072466;28;20092;-74
2022/06/27 12:00:19;;;;;;;5.90;4.30;;;18.90;99.90;;;;;;5064503;28;20059;-75
2022/06/27 12:02:47;;;;;;;5.63;4.22;;;18.90;99.90;;;;;;5054003;28;20040;-76
2022/06/27 12:05:21;;;;;;;4.45;4.05;;;18.90;99.90;;;;;;5064940;28;20404;-74
2022/06/27 12:07:53;;;;;;;4.88;3.80;;;18.90;99.90;;;;;;5057774;28;20533;-75
2022/06/27 12:10:38;;;;;;;;;;;18.90;99.90;;;;;;5073635;28;20048;-75
2022/06/27 12:13:11;;;;;;;4.10;3.70;;;18.80;99.90;;;;;;5071666;28;19921;-75
2022/06/27 12:15:38;;;;;;;4.28;3.88;;;18.80;99.90;;;;;;5057273;28;20055;-75
2022/06/27 12:18:06;;;;;;;6.00;3.90;;;18.90;99.90;;;;;;5056313;28;20037;-75
2022/06/27 12:20:34;;;;;;;3.90;3.50;;;18.90;99.90;;;;;;5041147;28;20052;-75
2022/06/27 12:23:00;;;;;;;3.90;3.60;;;19.00;99.90;;;;;;5073429;28;20501;-76
2022/06/27 12:25:27;;;;;;;4.18;3.20;;;19.00;99.90;;;;;;5051643;28;20266;-76
2022/06/27 12:27:53;;;;;;;5.05;3.72;;;19.10;99.90;;;;;;5061520;28;20047;-76
2022/06/27 12:30:19;;;;;;;3.90;3.60;;;19.10;99.90;;;;;;5038748;28;20132;-76
2022/06/27 12:32:45;;;;;;;3.97;3.67;;;19.10;99.90;;;;;;5074153;28;20056;-76
2022/06/27 12:35:12;;;;;;;3.70;3.40;;;19.10;99.90;;;;;;5071968;28;20499;-76
2022/06/27 12:37:38;;;;;;;5.10;4.03;;;19.10;99.90;;;;;;5067442;28;20044;-76
2022/06/27 12:40:06;;;;;;;4.15;3.80;;;19.10;99.90;;;;;;5073085;28;20296;-76
2022/06/27 12:42:32;;;;;;;6.35;4.15;;;19.10;99.90;;;;;;5057460;28;20135;-76
2022/06/27 12:44:59;;;;;;;3.72;3.42;;;19.10;99.90;;;;;;5056612;28;20037;-76
2022/06/27 12:47:25;;;;;;;3.90;3.60;;;19.10;99.90;;;;;;5073304;28;20036;-76
2022/06/27 12:49:51;;;;;;;3.30;3.00;;;19.00;99.90;;;;;;5055846;28;20054;-76
2022/06/27 12:52:17;;;;;;;3.17;2.90;;;19.00;99.90;;;;;;5072955;28;20041;-76
2022/06/27 12:54:43;;;;;;;4.40;3.72;;;18.90;99.90;;;;;;5039642;28;20052;-76